sensor_id;sensor_type;location;lat;lon;timestamp;temperature;humidity
12632;DHT22;6381;45.748;12.106;2024-03-06T00:02:05;11.50;99.90
12632;DHT22;6381;45.748;12.106;2024-03-06T00:04:35;11.60;99.90
12632;DHT22;6381;45.748;12.106;2024-03-06T00:07:05;11.60;99.90
12632;DHT22;6381;45.748;12.106;2024-03-06T00:09:35;11.50;99.90
12632;DHT22;6381;45.748;12.106;2024-03-06T00:12:05;11.60;99.90
12632;DHT22;6381;45.748;12.106;2024-03-06T00:14:36;11.70;99.90
12632;DHT22;6381;45.748;12.106;2024-03-06T00:17:07;11.80;99.90
12632;DHT22;6381;45.748;12.106;2024-03-06T00:19:37;11.70;99.90
12632;DHT22;6381;45.748;12.106;2024-03-06T00:22:09;11.60;99.90
12632;DHT22;6381;45.748;12.106;2024-03-06T00:24:39;11.50;99.90
12632;DHT22;6381;45.748;12.106;2024-03-06T00:27:09;11.30;99.90
12632;DHT22;6381;45.748;12.106;2024-03-06T00:29:39;11.30;99.90
12632;DHT22;6381;45.748;12.106;2024-03-06T00:32:10;11.50;99.90
12632;DHT22;6381;45.748;12.106;2024-03-06T00:34:41;11.50;99.90
12632;DHT22;6381;45.748;12.106;2024-03-06T00:37:11;11.60;99.90
12632;DHT22;6381;45.748;12.106;2024-03-06T00:39:41;11.50;99.90
12632;DHT22;6381;45.748;12.106;2024-03-06T00:42:11;11.50;99.90
12632;DHT22;6381;45.748;12.106;2024-03-06T00:44:42;11.50;99.90
12632;DHT22;6381;45.748;12.106;2024-03-06T00:47:13;11.50;99.90
12632;DHT22;6381;45.748;12.106;2024-03-06T00:49:43;11.50;99.90
12632;DHT22;6381;45.748;12.106;2024-03-06T00:52:13;11.40;99.90
12632;DHT22;6381;45.748;12.106;2024-03-06T00:54:42;11.30;99.90
12632;DHT22;6381;45.748;12.106;2024-03-06T00:57:12;11.30;99.90
12632;DHT22;6381;45.748;12.106;2024-03-06T00:59:42;11.30;99.90
12632;DHT22;6381;45.748;12.106;2024-03-06T01:02:14;11.50;99.90
12632;DHT22;6381;45.748;12.106;2024-03-06T01:04:45;11.40;99.90
12632;DHT22;6381;45.748;12.106;2024-03-06T01:07:15;11.40;99.90
12632;DHT22;6381;45.748;12.106;2024-03-06T01:09:45;11.20;99.90
12632;DHT22;6381;45.748;12.106;2024-03-06T01:12:15;11.30;99.90
12632;DHT22;6381;45.748;12.106;2024-03-06T01:14:46;11.30;99.90
12632;DHT22;6381;45.748;12.106;2024-03-06T01:17:18;11.20;99.90
12632;DHT22;6381;45.748;12.106;2024-03-06T01:19:48;11.30;99.90
12632;DHT22;6381;45.748;12.106;2024-03-06T01:22:17;11.30;99.90
12632;DHT22;6381;45.748;12.106;2024-03-06T01:24:47;11.40;99.90
12632;DHT22;6381;45.748;12.106;2024-03-06T01:27:20;11.40;99.90
12632;DHT22;6381;45.748;12.106;2024-03-06T01:29:51;11.20;99.90
12632;DHT22;6381;45.748;12.106;2024-03-06T01:32:22;11.40;99.90
12632;DHT22;6381;45.748;12.106;2024-03-06T01:34:51;11.30;99.90
12632;DHT22;6381;45.748;12.106;2024-03-06T01:37:21;11.20;99.90
12632;DHT22;6381;45.748;12.106;2024-03-06T01:39:51;11.20;99.90
12632;DHT22;6381;45.748;12.106;2024-03-06T01:42:21;11.40;99.90
12632;DHT22;6381;45.748;12.106;2024-03-06T01:44:51;11.30;99.90
12632;DHT22;6381;45.748;12.106;2024-03-06T01:47:22;11.30;99.90
12632;DHT22;6381;45.748;12.106;2024-03-06T01:49:52;11.40;99.90
12632;DHT22;6381;45.748;12.106;2024-03-06T01:52:23;11.50;99.90
12632;DHT22;6381;45.748;12.106;2024-03-06T01:54:53;11.40;99.90
12632;DHT22;6381;45.748;12.106;2024-03-06T01:57:25;11.50;99.90
12632;DHT22;6381;45.748;12.106;2024-03-06T01:59:54;11.30;99.90
12632;DHT22;6381;45.748;12.106;2024-03-06T02:02:26;11.20;99.90
12632;DHT22;6381;45.748;12.106;2024-03-06T02:04:56;10.90;99.90
12632;DHT22;6381;45.748;12.106;2024-03-06T02:07:29;11.20;99.90
12632;DHT22;6381;45.748;12.106;2024-03-06T02:10:00;11.30;99.90
12632;DHT22;6381;45.748;12.106;2024-03-06T02:12:30;11.30;99.90
12632;DHT22;6381;45.748;12.106;2024-03-06T02:15:00;11.30;99.90
12632;DHT22;6381;45.748;12.106;2024-03-06T02:17:32;11.20;99.90
12632;DHT22;6381;45.748;12.106;2024-03-06T02:20:04;11.30;99.90
12632;DHT22;6381;45.748;12.106;2024-03-06T02:22:39;11.30;99.90
12632;DHT22;6381;45.748;12.106;2024-03-06T02:25:10;11.20;99.90
12632;DHT22;6381;45.748;12.106;2024-03-06T02:27:40;11.20;99.90
12632;DHT22;6381;45.748;12.106;2024-03-06T02:30:12;11.10;99.90
12632;DHT22;6381;45.748;12.106;2024-03-06T02:32:42;11.20;99.90
12632;DHT22;6381;45.748;12.106;2024-03-06T02:35:12;11.10;99.90
12632;DHT22;6381;45.748;12.106;2024-03-06T02:37:44;11.20;99.90
12632;DHT22;6381;45.748;12.106;2024-03-06T02:40:15;11.30;99.90
12632;DHT22;6381;45.748;12.106;2024-03-06T02:42:45;11.30;99.90
12632;DHT22;6381;45.748;12.106;2024-03-06T02:45:16;11.40;99.90
12632;DHT22;6381;45.748;12.106;2024-03-06T02:47:46;11.20;99.90
12632;DHT22;6381;45.748;12.106;2024-03-06T02:50:16;11.30;99.90
12632;DHT22;6381;45.748;12.106;2024-03-06T02:52:48;11.10;99.90
12632;DHT22;6381;45.748;12.106;2024-03-06T02:55:20;11.30;99.90
12632;DHT22;6381;45.748;12.106;2024-03-06T02:57:50;11.10;99.90
12632;DHT22;6381;45.748;12.106;2024-03-06T03:00:20;11.20;99.90
12632;DHT22;6381;45.748;12.106;2024-03-06T03:02:50;11.30;99.90
12632;DHT22;6381;45.748;12.106;2024-03-06T03:05:19;11.40;99.90
12632;DHT22;6381;45.748;12.106;2024-03-06T03:07:51;11.20;99.90
12632;DHT22;6381;45.748;12.106;2024-03-06T03:10:21;11.10;99.90
12632;DHT22;6381;45.748;12.106;2024-03-06T03:12:53;11.10;99.90
12632;DHT22;6381;45.748;12.106;2024-03-06T03:15:24;11.00;99.90
12632;DHT22;6381;45.748;12.106;2024-03-06T03:17:54;11.10;99.90
12632;DHT22;6381;45.748;12.106;2024-03-06T03:20:24;11.10;99.90
12632;DHT22;6381;45.748;12.106;2024-03-06T03:22:56;11.10;99.90
12632;DHT22;6381;45.748;12.106;2024-03-06T03:25:26;11.10;99.90
12632;DHT22;6381;45.748;12.106;2024-03-06T03:27:56;11.20;99.90
12632;DHT22;6381;45.748;12.106;2024-03-06T03:30:27;11.30;99.90
12632;DHT22;6381;45.748;12.106;2024-03-06T03:32:56;11.20;99.90
12632;DHT22;6381;45.748;12.106;2024-03-06T03:35:27;11.10;99.90
12632;DHT22;6381;45.748;12.106;2024-03-06T03:37:58;11.10;99.90
12632;DHT22;6381;45.748;12.106;2024-03-06T03:40:28;11.10;99.90
12632;DHT22;6381;45.748;12.106;2024-03-06T03:42:58;11.30;99.90
12632;DHT22;6381;45.748;12.106;2024-03-06T03:45:34;11.20;99.90
12632;DHT22;6381;45.748;12.106;2024-03-06T03:48:04;11.40;99.90
12632;DHT22;6381;45.748;12.106;2024-03-06T03:50:35;11.20;99.90
12632;DHT22;6381;45.748;12.106;2024-03-06T03:53:06;11.10;99.90
12632;DHT22;6381;45.748;12.106;2024-03-06T03:55:36;11.10;99.90
12632;DHT22;6381;45.748;12.106;2024-03-06T03:58:06;11.20;99.90
12632;DHT22;6381;45.748;12.106;2024-03-06T04:00:36;11.20;99.90
12632;DHT22;6381;45.748;12.106;2024-03-06T04:03:07;11.30;99.90
12632;DHT22;6381;45.748;12.106;2024-03-06T04:05:38;11.40;99.90
12632;DHT22;6381;45.748;12.106;2024-03-06T04:08:11;11.20;99.90
12632;DHT22;6381;45.748;12.106;2024-03-06T04:10:42;11.20;99.90
12632;DHT22;6381;45.748;12.106;2024-03-06T04:13:15;11.30;99.90
12632;DHT22;6381;45.748;12.106;2024-03-06T04:15:47;11.20;99.90
12632;DHT22;6381;45.748;12.106;2024-03-06T04:18:18;11.30;99.90
12632;DHT22;6381;45.748;12.106;2024-03-06T04:20:48;11.20;99.90
12632;DHT22;6381;45.748;12.106;2024-03-06T04:23:19;11.20;99.90
12632;DHT22;6381;45.748;12.106;2024-03-06T04:25:50;11.20;99.90
12632;DHT22;6381;45.748;12.106;2024-03-06T04:28:21;11.20;99.90
12632;DHT22;6381;45.748;12.106;2024-03-06T04:30:51;11.10;99.90
12632;DHT22;6381;45.748;12.106;2024-03-06T04:33:21;11.20;99.90
12632;DHT22;6381;45.748;12.106;2024-03-06T04:35:51;11.20;99.90
12632;DHT22;6381;45.748;12.106;2024-03-06T04:38:23;11.10;99.90
12632;DHT22;6381;45.748;12.106;2024-03-06T04:40:53;11.20;99.90
12632;DHT22;6381;45.748;12.106;2024-03-06T04:43:24;11.10;99.90
12632;DHT22;6381;45.748;12.106;2024-03-06T04:45:53;11.20;99.90
12632;DHT22;6381;45.748;12.106;2024-03-06T04:48:24;11.20;99.90
12632;DHT22;6381;45.748;12.106;2024-03-06T04:50:54;11.40;99.90
12632;DHT22;6381;45.748;12.106;2024-03-06T04:53:26;11.30;99.90
12632;DHT22;6381;45.748;12.106;2024-03-06T04:55:56;11.30;99.90
12632;DHT22;6381;45.748;12.106;2024-03-06T04:58:27;11.20;99.90
12632;DHT22;6381;45.748;12.106;2024-03-06T05:00:57;11.10;99.90
12632;DHT22;6381;45.748;12.106;2024-03-06T05:03:27;11.10;99.90
12632;DHT22;6381;45.748;12.106;2024-03-06T05:06:14;10.90;99.90
12632;DHT22;6381;45.748;12.106;2024-03-06T05:09:03;11.00;99.90
12632;DHT22;6381;45.748;12.106;2024-03-06T05:11:50;11.00;99.90
12632;DHT22;6381;45.748;12.106;2024-03-06T05:14:37;11.00;99.90
12632;DHT22;6381;45.748;12.106;2024-03-06T05:17:24;11.00;99.90
12632;DHT22;6381;45.748;12.106;2024-03-06T05:20:11;10.90;99.90
12632;DHT22;6381;45.748;12.106;2024-03-06T05:22:59;10.90;99.90
12632;DHT22;6381;45.748;12.106;2024-03-06T05:25:47;10.90;99.90
12632;DHT22;6381;45.748;12.106;2024-03-06T05:28:34;11.00;99.90
12632;DHT22;6381;45.748;12.106;2024-03-06T05:31:21;10.80;99.90
12632;DHT22;6381;45.748;12.106;2024-03-06T05:34:09;10.80;99.90
12632;DHT22;6381;45.748;12.106;2024-03-06T05:36:56;10.80;99.90
12632;DHT22;6381;45.748;12.106;2024-03-06T05:39:43;10.70;99.90
12632;DHT22;6381;45.748;12.106;2024-03-06T05:42:31;10.80;99.90
12632;DHT22;6381;45.748;12.106;2024-03-06T05:45:18;10.70;99.90
12632;DHT22;6381;45.748;12.106;2024-03-06T05:48:05;10.70;99.90
12632;DHT22;6381;45.748;12.106;2024-03-06T05:50:53;10.70;99.90
12632;DHT22;6381;45.748;12.106;2024-03-06T05:53:41;10.60;99.90
12632;DHT22;6381;45.748;12.106;2024-03-06T05:56:29;10.70;99.90
12632;DHT22;6381;45.748;12.106;2024-03-06T05:59:18;10.70;99.90
12632;DHT22;6381;45.748;12.106;2024-03-06T06:01:47;10.60;99.90
12632;DHT22;6381;45.748;12.106;2024-03-06T06:04:18;10.60;99.90
12632;DHT22;6381;45.748;12.106;2024-03-06T06:06:48;10.50;99.90
12632;DHT22;6381;45.748;12.106;2024-03-06T06:09:19;10.60;99.90
12632;DHT22;6381;45.748;12.106;2024-03-06T06:11:49;10.80;99.90
12632;DHT22;6381;45.748;12.106;2024-03-06T06:14:21;10.80;99.90
12632;DHT22;6381;45.748;12.106;2024-03-06T06:16:51;10.80;99.90
12632;DHT22;6381;45.748;12.106;2024-03-06T06:19:21;10.90;99.90
12632;DHT22;6381;45.748;12.106;2024-03-06T06:21:53;10.90;99.90
12632;DHT22;6381;45.748;12.106;2024-03-06T06:24:24;10.90;99.90
12632;DHT22;6381;45.748;12.106;2024-03-06T06:26:54;11.10;99.90
12632;DHT22;6381;45.748;12.106;2024-03-06T06:29:25;11.10;99.90
12632;DHT22;6381;45.748;12.106;2024-03-06T06:31:55;11.00;99.90
12632;DHT22;6381;45.748;12.106;2024-03-06T06:34:25;11.00;99.90
12632;DHT22;6381;45.748;12.106;2024-03-06T06:36:56;11.00;99.90
12632;DHT22;6381;45.748;12.106;2024-03-06T06:39:26;11.00;99.90
12632;DHT22;6381;45.748;12.106;2024-03-06T06:41:56;11.00;99.90
12632;DHT22;6381;45.748;12.106;2024-03-06T06:44:30;11.10;99.90
12632;DHT22;6381;45.748;12.106;2024-03-06T06:47:01;10.90;99.90
12632;DHT22;6381;45.748;12.106;2024-03-06T06:49:31;11.00;99.90
12632;DHT22;6381;45.748;12.106;2024-03-06T06:52:01;11.20;99.90
12632;DHT22;6381;45.748;12.106;2024-03-06T06:54:31;11.20;99.90
12632;DHT22;6381;45.748;12.106;2024-03-06T06:57:01;11.20;99.90
12632;DHT22;6381;45.748;12.106;2024-03-06T06:59:35;11.20;99.90
12632;DHT22;6381;45.748;12.106;2024-03-06T07:02:05;11.50;99.90
12632;DHT22;6381;45.748;12.106;2024-03-06T07:04:35;11.50;99.90
12632;DHT22;6381;45.748;12.106;2024-03-06T07:07:05;11.60;99.90
12632;DHT22;6381;45.748;12.106;2024-03-06T07:09:35;11.50;99.90
12632;DHT22;6381;45.748;12.106;2024-03-06T07:12:05;11.80;99.90
12632;DHT22;6381;45.748;12.106;2024-03-06T07:14:37;11.60;99.90
12632;DHT22;6381;45.748;12.106;2024-03-06T07:17:07;11.50;99.90
12632;DHT22;6381;45.748;12.106;2024-03-06T07:19:37;11.60;99.90
12632;DHT22;6381;45.748;12.106;2024-03-06T07:22:07;11.70;99.90
12632;DHT22;6381;45.748;12.106;2024-03-06T07:24:37;11.50;99.90
12632;DHT22;6381;45.748;12.106;2024-03-06T07:27:08;11.50;99.90
12632;DHT22;6381;45.748;12.106;2024-03-06T07:29:40;11.50;99.90
12632;DHT22;6381;45.748;12.106;2024-03-06T07:32:10;11.50;99.90
12632;DHT22;6381;45.748;12.106;2024-03-06T07:34:40;11.50;99.90
12632;DHT22;6381;45.748;12.106;2024-03-06T07:37:10;11.40;99.90
12632;DHT22;6381;45.748;12.106;2024-03-06T07:39:40;11.40;99.90
12632;DHT22;6381;45.748;12.106;2024-03-06T07:42:10;11.50;99.90
12632;DHT22;6381;45.748;12.106;2024-03-06T07:44:42;11.60;99.90
12632;DHT22;6381;45.748;12.106;2024-03-06T07:47:12;11.80;99.90
12632;DHT22;6381;45.748;12.106;2024-03-06T07:49:42;11.80;99.90
12632;DHT22;6381;45.748;12.106;2024-03-06T07:52:13;11.90;99.90
12632;DHT22;6381;45.748;12.106;2024-03-06T07:54:43;12.00;99.90
12632;DHT22;6381;45.748;12.106;2024-03-06T07:57:13;12.10;99.90
12632;DHT22;6381;45.748;12.106;2024-03-06T07:59:45;12.10;99.90
12632;DHT22;6381;45.748;12.106;2024-03-06T08:02:15;11.90;99.90
12632;DHT22;6381;45.748;12.106;2024-03-06T08:04:46;11.80;99.90
12632;DHT22;6381;45.748;12.106;2024-03-06T08:07:16;11.90;99.90
12632;DHT22;6381;45.748;12.106;2024-03-06T08:09:46;12.10;99.90
12632;DHT22;6381;45.748;12.106;2024-03-06T08:12:16;12.00;99.90
12632;DHT22;6381;45.748;12.106;2024-03-06T08:14:47;12.20;99.90
12632;DHT22;6381;45.748;12.106;2024-03-06T08:17:17;12.30;99.90
12632;DHT22;6381;45.748;12.106;2024-03-06T08:19:47;12.40;99.90
12632;DHT22;6381;45.748;12.106;2024-03-06T08:22:17;12.60;99.90
12632;DHT22;6381;45.748;12.106;2024-03-06T08:24:47;12.80;99.90
12632;DHT22;6381;45.748;12.106;2024-03-06T08:27:18;12.80;99.90
12632;DHT22;6381;45.748;12.106;2024-03-06T08:29:50;13.00;99.90
12632;DHT22;6381;45.748;12.106;2024-03-06T08:32:21;13.00;99.90
12632;DHT22;6381;45.748;12.106;2024-03-06T08:34:52;13.20;99.90
12632;DHT22;6381;45.748;12.106;2024-03-06T08:37:23;13.30;99.90
12632;DHT22;6381;45.748;12.106;2024-03-06T08:39:54;13.40;99.90
12632;DHT22;6381;45.748;12.106;2024-03-06T08:42:24;13.10;99.90
12632;DHT22;6381;45.748;12.106;2024-03-06T08:44:56;13.20;99.90
12632;DHT22;6381;45.748;12.106;2024-03-06T08:47:26;12.90;99.90
12632;DHT22;6381;45.748;12.106;2024-03-06T08:49:56;12.80;99.90
12632;DHT22;6381;45.748;12.106;2024-03-06T08:52:26;12.80;99.90
12632;DHT22;6381;45.748;12.106;2024-03-06T08:54:56;13.20;99.90
12632;DHT22;6381;45.748;12.106;2024-03-06T08:57:26;13.20;99.90
12632;DHT22;6381;45.748;12.106;2024-03-06T08:59:59;13.00;99.90
12632;DHT22;6381;45.748;12.106;2024-03-06T09:02:30;12.90;99.90
12632;DHT22;6381;45.748;12.106;2024-03-06T09:05:00;12.80;99.90
12632;DHT22;6381;45.748;12.106;2024-03-06T09:07:33;12.70;99.90
12632;DHT22;6381;45.748;12.106;2024-03-06T09:10:06;13.10;99.90
12632;DHT22;6381;45.748;12.106;2024-03-06T09:12:36;13.40;99.90
12632;DHT22;6381;45.748;12.106;2024-03-06T09:15:08;13.50;99.90
12632;DHT22;6381;45.748;12.106;2024-03-06T09:17:40;13.90;99.90
12632;DHT22;6381;45.748;12.106;2024-03-06T09:20:13;14.00;99.90
12632;DHT22;6381;45.748;12.106;2024-03-06T09:22:44;14.10;99.90
12632;DHT22;6381;45.748;12.106;2024-03-06T09:25:15;14.30;99.90
12632;DHT22;6381;45.748;12.106;2024-03-06T09:27:45;14.60;99.90
12632;DHT22;6381;45.748;12.106;2024-03-06T09:30:17;14.40;99.90
12632;DHT22;6381;45.748;12.106;2024-03-06T09:37:22;14.20;99.90
12632;DHT22;6381;45.748;12.106;2024-03-06T09:39:52;13.70;99.90
12632;DHT22;6381;45.748;12.106;2024-03-06T09:42:22;13.50;99.90
12632;DHT22;6381;45.748;12.106;2024-03-06T09:44:53;13.80;99.90
12632;DHT22;6381;45.748;12.106;2024-03-06T09:47:25;14.00;99.90
12632;DHT22;6381;45.748;12.106;2024-03-06T09:49:59;14.40;99.90
12632;DHT22;6381;45.748;12.106;2024-03-06T09:52:34;14.30;99.90
12632;DHT22;6381;45.748;12.106;2024-03-06T09:55:06;13.70;99.90
12632;DHT22;6381;45.748;12.106;2024-03-06T09:57:37;13.70;99.90
12632;DHT22;6381;45.748;12.106;2024-03-06T10:00:09;13.80;99.90
12632;DHT22;6381;45.748;12.106;2024-03-06T10:02:50;13.80;99.90
12632;DHT22;6381;45.748;12.106;2024-03-06T10:05:22;13.80;99.90
12632;DHT22;6381;45.748;12.106;2024-03-06T10:07:52;13.70;99.00
12632;DHT22;6381;45.748;12.106;2024-03-06T10:10:22;13.80;99.90
12632;DHT22;6381;45.748;12.106;2024-03-06T10:12:53;14.20;99.70
12632;DHT22;6381;45.748;12.106;2024-03-06T10:15:25;14.10;97.60
12632;DHT22;6381;45.748;12.106;2024-03-06T10:18:14;14.30;98.30
12632;DHT22;6381;45.748;12.106;2024-03-06T10:20:46;14.70;98.30
12632;DHT22;6381;45.748;12.106;2024-03-06T10:23:16;14.80;97.90
12632;DHT22;6381;45.748;12.106;2024-03-06T10:25:48;14.90;96.50
12632;DHT22;6381;45.748;12.106;2024-03-06T10:28:21;14.60;95.50
12632;DHT22;6381;45.748;12.106;2024-03-06T10:31:03;14.40;96.10
12632;DHT22;6381;45.748;12.106;2024-03-06T10:33:35;14.40;97.00
12632;DHT22;6381;45.748;12.106;2024-03-06T10:36:10;14.50;96.70
12632;DHT22;6381;45.748;12.106;2024-03-06T10:38:44;14.90;96.10
12632;DHT22;6381;45.748;12.106;2024-03-06T10:41:15;14.90;95.10
12632;DHT22;6381;45.748;12.106;2024-03-06T10:43:50;14.60;94.70
12632;DHT22;6381;45.748;12.106;2024-03-06T10:46:23;14.20;95.50
12632;DHT22;6381;45.748;12.106;2024-03-06T10:48:56;14.20;96.90
12632;DHT22;6381;45.748;12.106;2024-03-06T10:51:28;14.50;94.70
12632;DHT22;6381;45.748;12.106;2024-03-06T10:53:59;14.40;93.80
12632;DHT22;6381;45.748;12.106;2024-03-06T10:56:30;14.00;93.60
12632;DHT22;6381;45.748;12.106;2024-03-06T10:59:01;14.00;93.90
12632;DHT22;6381;45.748;12.106;2024-03-06T11:01:32;14.40;96.00
12632;DHT22;6381;45.748;12.106;2024-03-06T11:04:07;14.80;93.40
12632;DHT22;6381;45.748;12.106;2024-03-06T11:06:37;14.90;91.70
12632;DHT22;6381;45.748;12.106;2024-03-06T11:09:07;14.90;90.90
12632;DHT22;6381;45.748;12.106;2024-03-06T11:11:49;14.50;90.80
12632;DHT22;6381;45.748;12.106;2024-03-06T11:14:22;14.20;90.60
12632;DHT22;6381;45.748;12.106;2024-03-06T11:17:00;14.30;91.30
12632;DHT22;6381;45.748;12.106;2024-03-06T11:20:08;14.00;91.90
12632;DHT22;6381;45.748;12.106;2024-03-06T11:23:04;13.70;91.70
12632;DHT22;6381;45.748;12.106;2024-03-06T11:26:02;14.00;93.20
12632;DHT22;6381;45.748;12.106;2024-03-06T11:28:34;13.90;92.10
12632;DHT22;6381;45.748;12.106;2024-03-06T11:31:06;13.80;93.30
12632;DHT22;6381;45.748;12.106;2024-03-06T11:33:41;14.40;92.90
12632;DHT22;6381;45.748;12.106;2024-03-06T11:36:18;14.40;91.40
12632;DHT22;6381;45.748;12.106;2024-03-06T11:38:51;14.00;91.60
12632;DHT22;6381;45.748;12.106;2024-03-06T11:41:23;14.20;90.90
12632;DHT22;6381;45.748;12.106;2024-03-06T11:43:54;14.00;91.70
12632;DHT22;6381;45.748;12.106;2024-03-06T11:46:42;14.20;91.80
12632;DHT22;6381;45.748;12.106;2024-03-06T11:49:16;14.20;91.30
12632;DHT22;6381;45.748;12.106;2024-03-06T11:52:00;14.20;91.60
12632;DHT22;6381;45.748;12.106;2024-03-06T11:54:30;14.70;91.70
12632;DHT22;6381;45.748;12.106;2024-03-06T11:57:03;15.20;89.50
12632;DHT22;6381;45.748;12.106;2024-03-06T11:59:36;15.40;86.30
12632;DHT22;6381;45.748;12.106;2024-03-06T12:02:07;15.90;87.80
12632;DHT22;6381;45.748;12.106;2024-03-06T12:04:41;16.10;83.80
12632;DHT22;6381;45.748;12.106;2024-03-06T12:07:13;17.20;79.70
12632;DHT22;6381;45.748;12.106;2024-03-06T12:09:47;17.40;71.90
12632;DHT22;6381;45.748;12.106;2024-03-06T12:12:17;16.50;71.60
12632;DHT22;6381;45.748;12.106;2024-03-06T12:14:57;16.10;72.30
12632;DHT22;6381;45.748;12.106;2024-03-06T12:17:27;16.80;72.90
12632;DHT22;6381;45.748;12.106;2024-03-06T12:19:58;16.70;71.00
12632;DHT22;6381;45.748;12.106;2024-03-06T12:22:32;16.40;72.00
12632;DHT22;6381;45.748;12.106;2024-03-06T12:25:03;15.90;73.50
12632;DHT22;6381;45.748;12.106;2024-03-06T12:27:33;15.90;74.50
12632;DHT22;6381;45.748;12.106;2024-03-06T12:30:09;15.80;75.80
12632;DHT22;6381;45.748;12.106;2024-03-06T12:32:44;15.10;75.70
12632;DHT22;6381;45.748;12.106;2024-03-06T12:35:24;14.60;82.00
12632;DHT22;6381;45.748;12.106;2024-03-06T12:37:56;14.50;84.60
12632;DHT22;6381;45.748;12.106;2024-03-06T12:40:27;14.80;84.60
12632;DHT22;6381;45.748;12.106;2024-03-06T12:42:58;15.10;81.60
12632;DHT22;6381;45.748;12.106;2024-03-06T12:45:32;15.10;83.20
12632;DHT22;6381;45.748;12.106;2024-03-06T12:48:04;15.00;82.70
12632;DHT22;6381;45.748;12.106;2024-03-06T12:50:41;14.80;81.60
12632;DHT22;6381;45.748;12.106;2024-03-06T12:53:14;15.30;77.60
12632;DHT22;6381;45.748;12.106;2024-03-06T12:55:44;15.00;74.30
12632;DHT22;6381;45.748;12.106;2024-03-06T12:58:15;14.70;74.50
12632;DHT22;6381;45.748;12.106;2024-03-06T13:00:45;14.90;76.30
12632;DHT22;6381;45.748;12.106;2024-03-06T13:03:15;15.40;77.00
12632;DHT22;6381;45.748;12.106;2024-03-06T13:05:45;15.20;75.60
12632;DHT22;6381;45.748;12.106;2024-03-06T13:08:17;15.30;73.10
12632;DHT22;6381;45.748;12.106;2024-03-06T13:10:47;15.30;69.60
12632;DHT22;6381;45.748;12.106;2024-03-06T13:13:19;15.80;67.60
12632;DHT22;6381;45.748;12.106;2024-03-06T13:15:55;15.40;65.70
12632;DHT22;6381;45.748;12.106;2024-03-06T13:18:33;15.30;69.10
12632;DHT22;6381;45.748;12.106;2024-03-06T13:21:03;15.90;64.80
12632;DHT22;6381;45.748;12.106;2024-03-06T13:23:35;16.20;61.90
12632;DHT22;6381;45.748;12.106;2024-03-06T13:26:06;15.90;62.10
12632;DHT22;6381;45.748;12.106;2024-03-06T13:28:36;16.30;61.10
12632;DHT22;6381;45.748;12.106;2024-03-06T13:31:07;16.20;59.60
12632;DHT22;6381;45.748;12.106;2024-03-06T13:33:38;16.80;57.80
12632;DHT22;6381;45.748;12.106;2024-03-06T13:36:08;16.80;53.40
12632;DHT22;6381;45.748;12.106;2024-03-06T13:38:41;16.70;52.50
12632;DHT22;6381;45.748;12.106;2024-03-06T13:41:11;16.60;52.30
12632;DHT22;6381;45.748;12.106;2024-03-06T13:43:44;16.50;53.30
12632;DHT22;6381;45.748;12.106;2024-03-06T13:46:15;17.90;50.60
12632;DHT22;6381;45.748;12.106;2024-03-06T13:48:46;17.80;46.20
12632;DHT22;6381;45.748;12.106;2024-03-06T13:51:16;17.90;43.80
12632;DHT22;6381;45.748;12.106;2024-03-06T13:53:51;18.00;40.80
12632;DHT22;6381;45.748;12.106;2024-03-06T13:56:21;18.60;40.40
12632;DHT22;6381;45.748;12.106;2024-03-06T13:58:52;19.20;38.00
12632;DHT22;6381;45.748;12.106;2024-03-06T14:01:22;19.70;35.60
12632;DHT22;6381;45.748;12.106;2024-03-06T14:03:53;18.60;33.90
12632;DHT22;6381;45.748;12.106;2024-03-06T14:06:25;18.50;33.20
12632;DHT22;6381;45.748;12.106;2024-03-06T14:08:57;18.80;35.20
12632;DHT22;6381;45.748;12.106;2024-03-06T14:11:27;18.90;32.20
12632;DHT22;6381;45.748;12.106;2024-03-06T14:14:00;17.20;34.10
12632;DHT22;6381;45.748;12.106;2024-03-06T14:16:30;17.80;37.60
12632;DHT22;6381;45.748;12.106;2024-03-06T14:19:00;18.20;35.50
12632;DHT22;6381;45.748;12.106;2024-03-06T14:21:33;17.90;35.70
12632;DHT22;6381;45.748;12.106;2024-03-06T14:24:08;17.60;36.50
12632;DHT22;6381;45.748;12.106;2024-03-06T14:26:40;16.30;38.30
12632;DHT22;6381;45.748;12.106;2024-03-06T14:29:12;15.70;44.70
12632;DHT22;6381;45.748;12.106;2024-03-06T14:31:46;15.30;48.70
12632;DHT22;6381;45.748;12.106;2024-03-06T14:34:18;15.60;55.00
12632;DHT22;6381;45.748;12.106;2024-03-06T14:36:49;15.80;54.70
12632;DHT22;6381;45.748;12.106;2024-03-06T14:39:21;15.90;51.40
12632;DHT22;6381;45.748;12.106;2024-03-06T14:41:54;16.20;49.30
12632;DHT22;6381;45.748;12.106;2024-03-06T14:44:26;16.80;47.80
12632;DHT22;6381;45.748;12.106;2024-03-06T14:46:57;17.50;45.90
12632;DHT22;6381;45.748;12.106;2024-03-06T14:49:27;16.90;42.60
12632;DHT22;6381;45.748;12.106;2024-03-06T14:51:57;16.50;44.50
12632;DHT22;6381;45.748;12.106;2024-03-06T14:54:35;15.60;46.70
12632;DHT22;6381;45.748;12.106;2024-03-06T14:57:08;15.20;49.80
12632;DHT22;6381;45.748;12.106;2024-03-06T14:59:38;14.90;52.90
12632;DHT22;6381;45.748;12.106;2024-03-06T15:02:09;14.60;55.10
12632;DHT22;6381;45.748;12.106;2024-03-06T15:04:41;14.40;58.80
12632;DHT22;6381;45.748;12.106;2024-03-06T15:07:11;14.50;61.40
12632;DHT22;6381;45.748;12.106;2024-03-06T15:09:44;14.40;64.30
12632;DHT22;6381;45.748;12.106;2024-03-06T15:12:14;14.50;65.30
12632;DHT22;6381;45.748;12.106;2024-03-06T15:14:44;14.60;66.60
12632;DHT22;6381;45.748;12.106;2024-03-06T15:17:24;14.50;67.80
12632;DHT22;6381;45.748;12.106;2024-03-06T15:19:55;14.40;68.70
12632;DHT22;6381;45.748;12.106;2024-03-06T15:22:27;14.40;68.10
12632;DHT22;6381;45.748;12.106;2024-03-06T15:25:00;14.10;67.60
12632;DHT22;6381;45.748;12.106;2024-03-06T15:27:30;14.00;68.30
12632;DHT22;6381;45.748;12.106;2024-03-06T15:29:59;13.80;70.40
12632;DHT22;6381;45.748;12.106;2024-03-06T15:32:29;13.70;73.10
12632;DHT22;6381;45.748;12.106;2024-03-06T15:34:59;13.70;70.10
12632;DHT22;6381;45.748;12.106;2024-03-06T15:37:31;13.60;71.50
12632;DHT22;6381;45.748;12.106;2024-03-06T15:40:04;13.50;73.00
12632;DHT22;6381;45.748;12.106;2024-03-06T15:42:40;13.30;73.00
12632;DHT22;6381;45.748;12.106;2024-03-06T15:45:12;13.30;75.60
12632;DHT22;6381;45.748;12.106;2024-03-06T15:47:44;13.60;76.10
12632;DHT22;6381;45.748;12.106;2024-03-06T15:50:14;13.60;76.60
12632;DHT22;6381;45.748;12.106;2024-03-06T15:52:44;13.60;75.00
12632;DHT22;6381;45.748;12.106;2024-03-06T15:55:16;13.40;76.30
12632;DHT22;6381;45.748;12.106;2024-03-06T15:57:48;13.50;78.70
12632;DHT22;6381;45.748;12.106;2024-03-06T16:00:22;13.60;78.30
12632;DHT22;6381;45.748;12.106;2024-03-06T16:02:51;13.50;77.20
12632;DHT22;6381;45.748;12.106;2024-03-06T16:05:22;13.30;79.10
12632;DHT22;6381;45.748;12.106;2024-03-06T16:08:00;13.40;81.60